createdAt,value
2018-09-09T00:00:09.759Z,16.56
2018-09-09T00:01:09.743Z,16.54
2018-09-09T00:02:09.710Z,16.65
2018-09-09T00:03:09.686Z,16.60
2018-09-09T00:04:09.659Z,16.57
2018-09-09T00:05:09.636Z,16.57
2018-09-09T00:06:09.609Z,16.54
2018-09-09T00:07:09.588Z,16.54
2018-09-09T00:08:09.558Z,16.60
2018-09-09T00:09:09.537Z,16.58
2018-09-09T00:10:09.507Z,16.54
2018-09-09T00:11:09.480Z,16.57
2018-09-09T00:12:09.460Z,16.58
2018-09-09T00:13:09.435Z,16.60
2018-09-09T00:14:09.413Z,16.57
2018-09-09T00:15:09.387Z,16.54
2018-09-09T00:16:09.355Z,16.53
2018-09-09T00:17:09.334Z,16.56
2018-09-09T00:18:09.304Z,16.64
2018-09-09T00:19:09.283Z,16.60
2018-09-09T00:20:09.262Z,16.53
2018-09-09T00:21:09.230Z,16.57
2018-09-09T00:22:09.208Z,16.60
2018-09-09T00:23:09.176Z,16.57
2018-09-09T00:24:09.155Z,16.56
2018-09-09T00:25:09.126Z,16.53
2018-09-09T00:26:09.105Z,16.54
2018-09-09T00:27:09.072Z,16.54
2018-09-09T00:28:09.057Z,16.54
2018-09-09T00:29:09.028Z,16.61
2018-09-09T00:30:09.000Z,16.53
2018-09-09T00:31:08.978Z,16.58
2018-09-09T00:32:08.945Z,16.57
2018-09-09T00:33:08.921Z,16.66
2018-09-09T00:34:08.903Z,16.53
2018-09-09T00:35:08.875Z,16.60
2018-09-09T00:36:08.850Z,16.57
2018-09-09T00:37:08.822Z,16.54
2018-09-09T00:38:08.798Z,16.53
2018-09-09T00:39:08.778Z,16.58
2018-09-09T00:40:08.747Z,16.58
2018-09-09T00:41:08.720Z,16.60
2018-09-09T00:42:08.697Z,16.57
2018-09-09T00:43:08.667Z,16.56
2018-09-09T00:44:08.644Z,16.57
2018-09-09T00:45:08.638Z,16.54
2018-09-09T00:46:08.590Z,16.58
2018-09-09T00:47:08.567Z,16.57
2018-09-09T00:48:08.540Z,16.54
2018-09-09T00:49:08.512Z,16.58
2018-09-09T00:50:08.495Z,16.58
2018-09-09T00:51:08.467Z,16.57
2018-09-09T00:52:08.438Z,16.54
2018-09-09T00:53:08.411Z,16.53
2018-09-09T00:54:08.396Z,16.56
2018-09-09T00:55:08.363Z,16.49
2018-09-09T00:56:08.339Z,16.51
2018-09-09T00:57:08.316Z,16.51
2018-09-09T00:58:08.284Z,16.54
2018-09-09T00:59:08.259Z,16.51
2018-09-09T01:00:08.241Z,16.54
2018-09-09T01:01:08.209Z,16.49
2018-09-09T01:02:08.191Z,16.50
2018-09-09T01:03:08.173Z,16.58
2018-09-09T01:04:08.132Z,16.58
2018-09-09T01:05:08.115Z,16.53
2018-09-09T01:06:08.081Z,16.53
2018-09-09T01:07:08.056Z,16.51
2018-09-09T01:08:08.034Z,16.58
2018-09-09T01:09:08.008Z,16.57
2018-09-09T01:10:07.977Z,16.47
2018-09-09T01:11:07.957Z,16.54
2018-09-09T01:12:07.930Z,16.47
2018-09-09T01:13:07.907Z,16.50
2018-09-09T01:14:07.879Z,16.54
2018-09-09T01:15:07.852Z,16.47
2018-09-09T01:16:07.832Z,16.43
2018-09-09T01:17:07.803Z,16.54
2018-09-09T01:18:07.779Z,16.47
2018-09-09T01:19:07.753Z,16.42
2018-09-09T01:20:07.726Z,16.51
2018-09-09T01:21:07.704Z,16.51
2018-09-09T01:22:07.676Z,16.43
2018-09-09T01:23:07.647Z,16.39
2018-09-09T01:24:07.629Z,16.47
2018-09-09T01:25:07.604Z,16.51
2018-09-09T01:26:07.569Z,16.51
2018-09-09T01:27:07.543Z,16.50
2018-09-09T01:28:07.527Z,16.49
2018-09-09T01:29:07.500Z,16.49
2018-09-09T01:30:07.470Z,16.47
2018-09-09T01:31:07.445Z,16.49
2018-09-09T01:32:07.421Z,16.54
2018-09-09T01:33:07.394Z,16.43
2018-09-09T01:34:07.373Z,16.49
2018-09-09T01:35:07.347Z,16.43
2018-09-09T01:36:07.324Z,16.47
2018-09-09T01:37:07.291Z,16.49
2018-09-09T01:38:07.266Z,16.54
2018-09-09T01:39:07.242Z,16.58
2018-09-09T01:40:07.215Z,16.46
2018-09-09T01:41:07.189Z,16.46
2018-09-09T01:42:07.171Z,16.43
2018-09-09T01:43:07.146Z,16.47
2018-09-09T01:44:07.112Z,16.46
2018-09-09T01:45:07.089Z,16.46
2018-09-09T01:46:07.065Z,16.50
2018-09-09T01:47:07.033Z,16.50
2018-09-09T01:48:07.018Z,16.51
2018-09-09T01:49:06.989Z,16.46
2018-09-09T01:50:06.967Z,16.43
2018-09-09T01:51:06.942Z,16.42
2018-09-09T01:52:06.913Z,16.47
2018-09-09T01:53:06.890Z,16.42
2018-09-09T01:54:06.862Z,16.56
2018-09-09T01:55:06.832Z,16.38
2018-09-09T01:56:06.816Z,16.49
2018-09-09T01:57:06.785Z,16.46
2018-09-09T01:58:06.759Z,16.51
2018-09-09T01:59:06.732Z,16.49
2018-09-09T02:00:06.711Z,16.50
2018-09-09T02:01:06.677Z,16.43
2018-09-09T02:02:06.661Z,16.50
2018-09-09T02:03:06.635Z,16.50
2018-09-09T02:04:06.602Z,16.41
2018-09-09T02:05:06.592Z,16.38
2018-09-09T02:06:06.552Z,16.46
2018-09-09T02:07:06.530Z,16.46
2018-09-09T02:08:06.503Z,16.51
2018-09-09T02:09:06.481Z,16.56
2018-09-09T02:10:06.451Z,16.46
2018-09-09T02:11:06.430Z,16.50
2018-09-09T02:12:06.400Z,16.42
2018-09-09T02:13:06.377Z,16.51
2018-09-09T02:14:06.348Z,16.41
2018-09-09T02:15:06.328Z,16.33
2018-09-09T02:16:06.294Z,16.46
2018-09-09T02:17:06.277Z,16.41
2018-09-09T02:18:06.244Z,16.42
2018-09-09T02:19:06.224Z,16.43
2018-09-09T02:20:06.194Z,16.39
2018-09-09T02:21:06.168Z,16.35
2018-09-09T02:22:06.152Z,16.31
2018-09-09T02:23:06.124Z,16.29
2018-09-09T02:24:06.090Z,16.29
2018-09-09T02:25:06.067Z,16.28
2018-09-09T02:26:06.046Z,16.31
2018-09-09T02:27:06.022Z,16.39
2018-09-09T02:28:05.991Z,16.42
2018-09-09T02:29:05.968Z,16.35
2018-09-09T02:30:05.997Z,16.31
2018-09-09T02:31:05.919Z,16.32
2018-09-09T02:32:05.890Z,16.29
2018-09-09T02:33:05.862Z,16.31
2018-09-09T02:34:05.848Z,16.21
2018-09-09T02:35:05.812Z,16.23
2018-09-09T02:36:05.785Z,16.29
2018-09-09T02:37:05.763Z,16.26
2018-09-09T02:38:05.738Z,16.28
2018-09-09T02:39:05.715Z,16.33
2018-09-09T02:40:05.686Z,16.33
2018-09-09T02:41:05.661Z,16.26
2018-09-09T02:42:05.634Z,16.32
2018-09-09T02:43:05.605Z,16.31
2018-09-09T02:44:05.590Z,16.29
2018-09-09T02:45:05.555Z,16.35
2018-09-09T02:46:05.539Z,16.38
2018-09-09T02:47:05.510Z,16.33
2018-09-09T02:48:05.480Z,16.39
2018-09-09T02:49:05.460Z,16.35
2018-09-09T02:50:05.429Z,16.39
2018-09-09T02:51:05.401Z,16.42
2018-09-09T02:52:05.385Z,16.42
2018-09-09T02:53:05.356Z,16.36
2018-09-09T02:54:05.329Z,16.41
2018-09-09T02:55:05.303Z,16.36
2018-09-09T02:56:05.279Z,16.42
2018-09-09T02:57:05.252Z,16.42
2018-09-09T02:58:05.230Z,16.38
2018-09-09T02:59:05.206Z,16.43
2018-09-09T03:00:05.175Z,16.33
2018-09-09T03:01:05.156Z,16.39
2018-09-09T03:02:05.122Z,16.35
2018-09-09T03:03:05.096Z,16.35
2018-09-09T03:04:05.077Z,16.39
2018-09-09T03:05:05.046Z,16.35
2018-09-09T03:06:05.028Z,16.28
2018-09-09T03:07:05.001Z,16.33
2018-09-09T03:08:04.967Z,16.35
2018-09-09T03:09:04.949Z,16.32
2018-09-09T03:10:04.917Z,16.31
2018-09-09T03:11:04.895Z,16.31
2018-09-09T03:12:04.878Z,16.21
2018-09-09T03:13:04.844Z,16.13
2018-09-09T03:14:04.817Z,16.15
2018-09-09T03:15:04.793Z,16.17
2018-09-09T03:16:04.765Z,16.17
2018-09-09T03:17:04.742Z,16.17
2018-09-09T03:18:04.714Z,16.12
2018-09-09T03:19:04.696Z,16.20
2018-09-09T03:20:04.659Z,16.15
2018-09-09T03:21:04.643Z,16.10
2018-09-09T03:22:04.613Z,16.15
2018-09-09T03:23:04.590Z,16.20
2018-09-09T03:24:04.563Z,16.28
2018-09-09T03:25:04.538Z,16.23
2018-09-09T03:26:04.518Z,16.16
2018-09-09T03:27:04.492Z,16.12
2018-09-09T03:28:04.456Z,16.10
2018-09-09T03:29:04.433Z,16.10
2018-09-09T03:30:04.410Z,16.10
2018-09-09T03:31:04.382Z,16.21
2018-09-09T03:32:04.364Z,16.02
2018-09-09T03:33:04.340Z,16.09
2018-09-09T03:34:04.303Z,16.05
2018-09-09T03:35:04.278Z,16.09
2018-09-09T03:36:04.260Z,16.16
2018-09-09T03:37:04.233Z,16.13
2018-09-09T03:38:04.205Z,16.10
2018-09-09T03:39:04.189Z,16.08
2018-09-09T03:40:04.149Z,16.04
2018-09-09T03:41:04.128Z,16.01
2018-09-09T03:42:04.106Z,16.05
2018-09-09T03:43:04.082Z,16.04
2018-09-09T03:44:04.050Z,16.02
2018-09-09T03:45:04.027Z,16.08
2018-09-09T03:46:04.000Z,16.10
2018-09-09T03:47:03.973Z,16.10
2018-09-09T03:48:03.955Z,16.21
2018-09-09T03:49:03.925Z,16.12
2018-09-09T03:50:03.899Z,16.17
2018-09-09T03:51:03.880Z,16.10
2018-09-09T03:52:03.846Z,16.08
2018-09-09T03:53:03.820Z,16.05
2018-09-09T03:54:03.801Z,15.97
2018-09-09T03:55:03.770Z,15.84
2018-09-09T03:56:03.757Z,15.84
2018-09-09T03:57:03.722Z,15.88
2018-09-09T03:58:03.698Z,15.88
2018-09-09T03:59:03.667Z,15.83
2018-09-09T04:00:03.643Z,15.94
2018-09-09T04:01:03.615Z,15.77
2018-09-09T04:02:03.594Z,15.76
2018-09-09T04:03:03.567Z,15.82
2018-09-09T04:04:03.542Z,15.91
2018-09-09T04:05:03.514Z,15.79
2018-09-09T04:06:03.490Z,15.84
2018-09-09T04:07:03.466Z,15.83
2018-09-09T04:08:03.438Z,15.83
2018-09-09T04:09:03.412Z,15.94
2018-09-09T04:10:03.459Z,15.86
2018-09-09T04:11:03.372Z,15.79
2018-09-09T04:12:03.339Z,15.83
2018-09-09T04:13:03.311Z,15.83
2018-09-09T04:14:03.282Z,15.94
2018-09-09T04:15:03.262Z,15.86
2018-09-09T04:16:03.234Z,15.84
2018-09-09T04:17:03.211Z,15.79
2018-09-09T04:18:03.179Z,15.88
2018-09-09T04:19:03.160Z,15.88
2018-09-09T04:20:03.136Z,15.91
2018-09-09T04:21:03.104Z,15.95
2018-09-09T04:22:03.081Z,15.84
2018-09-09T04:23:03.055Z,15.91
2018-09-09T04:24:03.028Z,15.86
2018-09-09T04:25:03.000Z,15.92
2018-09-09T04:26:02.984Z,15.91
2018-09-09T04:27:02.951Z,15.94
2018-09-09T04:28:02.930Z,15.97
2018-09-09T04:29:02.905Z,16.09
2018-09-09T04:30:02.876Z,16.04
2018-09-09T04:31:02.896Z,16.02
2018-09-09T04:32:02.827Z,16.04
2018-09-09T04:33:02.794Z,16.04
2018-09-09T04:34:02.785Z,16.15
2018-09-09T04:35:02.742Z,16.15
2018-09-09T04:36:02.724Z,16.02
2018-09-09T04:37:02.693Z,16.13
2018-09-09T04:38:02.675Z,16.20
2018-09-09T04:39:02.642Z,16.08
2018-09-09T04:40:02.621Z,16.04
2018-09-09T04:41:02.590Z,16.13
2018-09-09T04:42:02.568Z,16.13
2018-09-09T04:43:02.593Z,16.12
2018-09-09T04:44:02.520Z,16.15
2018-09-09T04:45:02.493Z,16.16
2018-09-09T04:46:02.463Z,16.15
2018-09-09T04:47:02.441Z,16.20
2018-09-09T04:48:02.419Z,16.17
2018-09-09T04:49:02.398Z,16.17
2018-09-09T04:50:02.363Z,16.24
2018-09-09T04:51:02.345Z,16.20
2018-09-09T04:52:02.311Z,16.16
2018-09-09T04:53:02.284Z,16.15
2018-09-09T04:54:02.263Z,16.21
2018-09-09T04:55:02.238Z,16.20
2018-09-09T04:56:02.209Z,16.16
2018-09-09T04:57:02.180Z,16.15
2018-09-09T04:58:02.163Z,16.15
2018-09-09T04:59:02.133Z,16.09
2018-09-09T05:00:02.107Z,16.15
2018-09-09T05:01:02.078Z,16.23
2018-09-09T05:02:02.058Z,16.20
2018-09-09T05:03:02.030Z,16.17
2018-09-09T05:04:02.011Z,16.21
2018-09-09T05:05:01.981Z,16.20
2018-09-09T05:06:01.957Z,16.20
2018-09-09T05:07:01.927Z,16.20
2018-09-09T05:08:01.908Z,16.13
2018-09-09T05:09:01.885Z,16.17
2018-09-09T05:10:01.850Z,16.13
2018-09-09T05:11:01.823Z,16.08
2018-09-09T05:12:01.803Z,16.15
2018-09-09T05:13:01.780Z,16.16
2018-09-09T05:14:01.744Z,16.13
2018-09-09T05:15:01.720Z,16.09
2018-09-09T05:16:01.703Z,16.13
2018-09-09T05:17:01.668Z,16.05
2018-09-09T05:18:01.644Z,16.01
2018-09-09T05:19:01.624Z,16.05
2018-09-09T05:20:01.596Z,16.09
2018-09-09T05:21:01.574Z,16.01
2018-09-09T05:22:01.538Z,16.05
2018-09-09T05:23:01.521Z,16.05
2018-09-09T05:24:01.489Z,16.09
2018-09-09T05:25:01.464Z,16.02
2018-09-09T05:26:01.446Z,16.12
2018-09-09T05:27:01.417Z,16.12
2018-09-09T05:28:01.388Z,16.13
2018-09-09T05:29:01.360Z,16.15
2018-09-09T05:30:01.345Z,16.15
2018-09-09T05:31:01.313Z,16.12
2018-09-09T05:32:01.289Z,16.24
2018-09-09T05:33:01.267Z,16.23
2018-09-09T05:34:01.241Z,16.12
2018-09-09T05:35:01.219Z,16.16
2018-09-09T05:36:01.191Z,16.16
2018-09-09T05:37:01.156Z,16.15
2018-09-09T05:38:01.139Z,16.16
2018-09-09T05:39:01.109Z,16.13
2018-09-09T05:40:01.090Z,16.16
2018-09-09T05:41:01.062Z,16.13
2018-09-09T05:42:01.031Z,16.15
2018-09-09T05:43:01.010Z,16.23
2018-09-09T05:44:00.980Z,16.31
2018-09-09T05:45:00.959Z,16.28
2018-09-09T05:46:00.931Z,16.31
2018-09-09T05:47:00.898Z,16.33
2018-09-09T05:48:00.883Z,16.32
2018-09-09T05:49:00.855Z,16.31
2018-09-09T05:50:00.833Z,16.38
2018-09-09T05:51:00.866Z,16.42
2018-09-09T05:52:00.777Z,16.46
2018-09-09T05:53:00.757Z,16.46
2018-09-09T05:54:00.776Z,16.41
2018-09-09T05:55:00.703Z,16.42
2018-09-09T05:56:00.670Z,16.43
2018-09-09T05:57:00.652Z,16.42
2018-09-09T05:58:00.635Z,16.51
2018-09-09T05:59:00.598Z,16.50
2018-09-09T06:00:00.569Z,16.47
2018-09-09T06:01:00.548Z,16.47
2018-09-09T06:02:00.522Z,16.50
2018-09-09T06:03:00.492Z,16.42
2018-09-09T06:04:00.472Z,16.47
2018-09-09T06:05:00.443Z,16.54
2018-09-09T06:06:00.421Z,16.50
2018-09-09T06:07:00.393Z,16.42
2018-09-09T06:08:00.382Z,16.41
2018-09-09T06:09:00.371Z,16.43
2018-09-09T06:10:00.318Z,16.39
2018-09-09T06:11:00.296Z,16.39
2018-09-09T06:12:00.389Z,16.42
2018-09-09T06:13:00.235Z,16.41
2018-09-09T06:14:00.264Z,16.42
2018-09-09T06:15:00.193Z,16.41
2018-09-09T06:16:00.791Z,16.39
2018-09-09T06:17:00.138Z,16.42
2018-09-09T06:18:00.115Z,16.41
2018-09-09T06:19:00.089Z,16.38
2018-09-09T06:20:00.061Z,16.53
2018-09-09T06:21:00.034Z,16.46
2018-09-09T06:22:00.013Z,16.42
2018-09-09T06:22:59.989Z,16.43
2018-09-09T06:23:59.954Z,16.49
2018-09-09T06:24:59.938Z,16.42
2018-09-09T06:25:59.906Z,16.53
2018-09-09T06:26:59.880Z,16.58
2018-09-09T06:27:59.863Z,16.46
2018-09-09T06:28:59.837Z,16.47
2018-09-09T06:29:59.802Z,16.57
2018-09-09T06:30:59.781Z,16.56
2018-09-09T06:31:59.752Z,16.57
2018-09-09T06:32:59.727Z,16.57
2018-09-09T06:33:59.740Z,16.64
2018-09-09T06:34:59.677Z,16.66
2018-09-09T06:35:59.655Z,16.74
2018-09-09T06:36:59.632Z,16.69
2018-09-09T06:37:59.604Z,16.75
2018-09-09T06:38:59.610Z,16.72
2018-09-09T06:39:59.590Z,16.69
2018-09-09T06:40:59.520Z,16.71
2018-09-09T06:41:59.505Z,16.81
2018-09-09T06:42:59.473Z,16.89
2018-09-09T06:43:59.453Z,16.90
2018-09-09T06:44:59.428Z,16.89
2018-09-09T06:45:59.472Z,17.01
2018-09-09T06:46:59.377Z,16.97
2018-09-09T06:47:59.349Z,16.99
2018-09-09T06:48:59.327Z,17.12
2018-09-09T06:49:59.295Z,17.12
2018-09-09T06:50:59.273Z,17.16
2018-09-09T06:51:59.244Z,17.09
2018-09-09T06:52:59.222Z,17.09
2018-09-09T06:53:59.196Z,17.16
2018-09-09T06:54:59.205Z,17.26
2018-09-09T06:55:59.182Z,17.26
2018-09-09T06:56:59.123Z,17.24
2018-09-09T06:57:59.091Z,17.24
2018-09-09T06:58:59.072Z,17.30
2018-09-09T06:59:59.039Z,17.27
2018-09-09T07:00:59.022Z,17.26
2018-09-09T07:01:58.987Z,17.31
2018-09-09T07:02:58.970Z,17.27
2018-09-09T07:03:58.940Z,17.38
2018-09-09T07:04:58.922Z,17.34
2018-09-09T07:05:58.890Z,17.34
2018-09-09T07:06:58.869Z,17.27
2018-09-09T07:07:58.838Z,17.38
2018-09-09T07:08:58.823Z,17.44
2018-09-09T07:09:58.809Z,17.39
2018-09-09T07:10:58.880Z,17.39
2018-09-09T07:11:58.900Z,17.51
2018-09-09T07:12:58.709Z,17.46
2018-09-09T07:13:58.695Z,17.49
2018-09-09T07:14:58.663Z,17.48
2018-09-09T07:15:58.651Z,17.54
2018-09-09T07:16:58.645Z,17.54
2018-09-09T07:17:58.586Z,17.67
2018-09-09T07:18:58.619Z,17.67
2018-09-09T07:19:58.538Z,17.70
2018-09-09T07:20:58.515Z,17.59
2018-09-09T07:21:58.482Z,17.68
2018-09-09T07:22:58.464Z,17.67
2018-09-09T07:23:58.434Z,17.70
2018-09-09T07:24:58.409Z,17.71
2018-09-09T07:25:58.382Z,17.68
2018-09-09T07:26:58.364Z,17.80
2018-09-09T07:27:58.329Z,17.76
2018-09-09T07:28:58.326Z,17.74
2018-09-09T07:29:58.282Z,17.74
2018-09-09T07:30:58.261Z,17.70
2018-09-09T07:31:58.235Z,17.74
2018-09-09T07:32:58.208Z,17.83
2018-09-09T07:33:58.188Z,17.78
2018-09-09T07:34:58.164Z,17.82
2018-09-09T07:35:58.131Z,17.85
2018-09-09T07:36:58.114Z,17.85
2018-09-09T07:37:58.083Z,17.87
2018-09-09T07:38:58.054Z,17.86
2018-09-09T07:39:58.082Z,17.92
2018-09-09T07:40:58.015Z,17.97
2018-09-09T07:41:57.984Z,18.03
2018-09-09T07:42:57.952Z,18.11
2018-09-09T07:43:57.936Z,18.05
2018-09-09T07:44:57.901Z,18.03
2018-09-09T07:45:57.886Z,18.15
2018-09-09T07:46:57.859Z,18.15
2018-09-09T07:47:57.843Z,18.13
2018-09-09T07:48:57.807Z,18.23
2018-09-09T07:49:57.780Z,18.25
2018-09-09T07:50:57.754Z,18.23
2018-09-09T07:51:57.737Z,18.37
2018-09-09T07:52:57.708Z,18.31
2018-09-09T07:53:57.681Z,18.41
2018-09-09T07:54:57.657Z,18.50
2018-09-09T07:55:57.628Z,18.47
2018-09-09T07:56:57.606Z,18.56
2018-09-09T07:57:57.580Z,18.63
2018-09-09T07:58:57.558Z,18.59
2018-09-09T07:59:57.526Z,18.63
2018-09-09T08:00:57.510Z,18.63
2018-09-09T08:01:57.477Z,18.78
2018-09-09T08:02:57.458Z,18.77
2018-09-09T08:03:57.427Z,18.81
2018-09-09T08:04:57.409Z,18.84
2018-09-09T08:05:57.375Z,18.99
2018-09-09T08:06:57.354Z,18.95
2018-09-09T08:07:57.338Z,19.09
2018-09-09T08:08:57.305Z,19.12
2018-09-09T08:09:57.280Z,19.11
2018-09-09T08:10:57.258Z,19.18
2018-09-09T08:11:57.259Z,19.26
2018-09-09T08:12:57.202Z,19.33
2018-09-09T08:13:57.181Z,19.29
2018-09-09T08:14:57.174Z,19.29
2018-09-09T08:15:57.128Z,19.39
2018-09-09T08:16:57.100Z,19.21
2018-09-09T08:17:57.085Z,19.30
2018-09-09T08:18:57.055Z,19.31
2018-09-09T08:19:57.032Z,19.31
2018-09-09T08:20:57.000Z,19.31
2018-09-09T08:21:56.987Z,19.36
2018-09-09T08:22:56.959Z,19.49
2018-09-09T08:23:56.929Z,19.40
2018-09-09T08:24:56.906Z,19.37
2018-09-09T08:25:56.882Z,19.39
2018-09-09T08:26:56.862Z,19.40
2018-09-09T08:27:56.825Z,19.44
2018-09-09T08:28:56.804Z,19.56
2018-09-09T08:29:56.802Z,19.51
2018-09-09T08:30:56.753Z,19.48
2018-09-09T08:31:56.734Z,19.58
2018-09-09T08:32:56.709Z,19.55
2018-09-09T08:33:56.679Z,19.63
2018-09-09T08:34:56.724Z,19.70
2018-09-09T08:35:56.631Z,19.64
2018-09-09T08:36:56.615Z,19.69
2018-09-09T08:37:56.582Z,19.73
2018-09-09T08:38:56.561Z,19.71
2018-09-09T08:39:56.528Z,19.54
2018-09-09T08:40:56.513Z,19.67
2018-09-09T08:41:56.480Z,19.62
2018-09-09T08:42:56.453Z,19.66
2018-09-09T08:43:56.439Z,19.67
2018-09-09T08:44:56.409Z,19.62
2018-09-09T08:45:56.383Z,19.70
2018-09-09T08:46:56.364Z,19.64
2018-09-09T08:47:56.335Z,19.66
2018-09-09T08:48:56.315Z,19.70
2018-09-09T08:49:56.282Z,19.74
2018-09-09T08:50:56.256Z,19.74
2018-09-09T08:51:56.322Z,19.64
2018-09-09T08:52:56.217Z,19.64
2018-09-09T08:53:56.181Z,19.63
2018-09-09T08:54:56.157Z,19.69
2018-09-09T08:55:56.140Z,19.81
2018-09-09T08:56:56.119Z,19.79
2018-09-09T08:57:56.085Z,19.88
2018-09-09T08:58:56.062Z,19.76
2018-09-09T08:59:56.032Z,19.85
2018-09-09T09:00:56.060Z,19.88
2018-09-09T09:01:55.990Z,19.89
2018-09-09T09:02:55.961Z,19.92
2018-09-09T09:03:55.944Z,19.94
2018-09-09T09:04:55.914Z,19.91
2018-09-09T09:05:55.888Z,19.89
2018-09-09T09:06:55.869Z,19.89
2018-09-09T09:07:55.881Z,20.04
2018-09-09T09:08:55.817Z,20.13
2018-09-09T09:09:55.833Z,20.09
2018-09-09T09:10:55.774Z,20.21
2018-09-09T09:11:55.739Z,20.25
2018-09-09T09:12:55.723Z,20.25
2018-09-09T09:13:55.686Z,20.36
2018-09-09T09:14:55.753Z,20.36
2018-09-09T09:15:55.650Z,20.44
2018-09-09T09:16:55.623Z,20.43
2018-09-09T09:17:55.668Z,20.52
2018-09-09T09:18:55.574Z,20.56
2018-09-09T09:19:55.547Z,20.58
2018-09-09T09:20:55.527Z,20.52
2018-09-09T09:21:55.499Z,20.59
2018-09-09T09:22:55.467Z,20.58
2018-09-09T09:23:55.449Z,20.65
2018-09-09T09:24:55.420Z,20.70
2018-09-09T09:25:55.398Z,20.80
2018-09-09T09:26:55.367Z,20.78
2018-09-09T09:27:55.353Z,20.87
2018-09-09T09:28:55.321Z,20.75
2018-09-09T09:29:55.305Z,20.81
2018-09-09T09:30:55.280Z,20.90
2018-09-09T09:31:55.257Z,20.90
2018-09-09T09:32:55.232Z,20.95
2018-09-09T09:33:55.203Z,20.88
2018-09-09T09:34:55.178Z,20.90
2018-09-09T09:35:55.158Z,20.87
2018-09-09T09:36:55.124Z,20.93
2018-09-09T09:37:55.108Z,20.95
2018-09-09T09:38:55.081Z,20.92
2018-09-09T09:39:55.057Z,20.93
2018-09-09T09:40:55.031Z,20.92
2018-09-09T09:41:55.004Z,20.92
2018-09-09T09:42:54.993Z,20.96
2018-09-09T09:43:54.954Z,20.90
2018-09-09T09:44:55.021Z,20.99
2018-09-09T09:45:54.907Z,20.92
2018-09-09T09:46:54.883Z,20.92
2018-09-09T09:47:54.863Z,20.92
2018-09-09T09:48:54.836Z,21.02
2018-09-09T09:49:54.815Z,21.00
2018-09-09T09:50:54.789Z,21.05
2018-09-09T09:51:54.763Z,21.09
2018-09-09T09:52:54.735Z,21.05
2018-09-09T09:53:54.722Z,21.02
2018-09-09T09:54:54.689Z,21.05
2018-09-09T09:55:54.677Z,21.05
2018-09-09T09:56:54.647Z,21.20
2018-09-09T09:57:54.610Z,21.25
2018-09-09T09:58:54.588Z,21.30
2018-09-09T09:59:54.571Z,21.30
2018-09-09T10:00:54.546Z,21.33
2018-09-09T10:01:54.522Z,21.32
2018-09-09T10:02:54.493Z,21.39
2018-09-09T10:03:54.471Z,21.37
2018-09-09T10:04:54.450Z,21.27
2018-09-09T10:05:54.416Z,21.45
2018-09-09T10:06:54.396Z,21.48
2018-09-09T10:07:54.385Z,21.42
2018-09-09T10:08:54.359Z,21.42
2018-09-09T10:09:54.331Z,21.50
2018-09-09T10:10:54.297Z,21.54
2018-09-09T10:11:54.280Z,21.48
2018-09-09T10:12:54.252Z,21.45
2018-09-09T10:13:54.225Z,21.48
2018-09-09T10:14:54.207Z,21.57
2018-09-09T10:15:54.174Z,21.60
2018-09-09T10:16:54.157Z,21.46
2018-09-09T10:17:54.127Z,21.52
2018-09-09T10:18:54.107Z,21.48
2018-09-09T10:19:54.079Z,21.33
2018-09-09T10:20:54.058Z,21.35
2018-09-09T10:21:54.048Z,21.42
2018-09-09T10:22:54.005Z,21.37
2018-09-09T10:23:54.039Z,21.37
2018-09-09T10:24:53.956Z,21.35
2018-09-09T10:25:53.939Z,21.39
2018-09-09T10:26:53.909Z,21.36
2018-09-09T10:27:53.887Z,21.37
2018-09-09T10:28:53.862Z,21.39
2018-09-09T10:29:53.871Z,21.33
2018-09-09T10:30:53.811Z,21.30
2018-09-09T10:31:53.792Z,21.36
2018-09-09T10:32:53.776Z,21.30
2018-09-09T10:33:53.743Z,21.32
2018-09-09T10:34:53.713Z,21.37
2018-09-09T10:35:53.696Z,21.37
2018-09-09T10:36:53.665Z,21.50
2018-09-09T10:37:53.643Z,21.48
2018-09-09T10:38:53.615Z,21.55
2018-09-09T10:39:53.600Z,21.66
2018-09-09T10:40:53.621Z,21.70
2018-09-09T10:41:53.549Z,21.76
2018-09-09T10:42:53.520Z,21.75
2018-09-09T10:43:53.499Z,21.75
2018-09-09T10:44:53.472Z,21.77
2018-09-09T10:45:53.451Z,21.85
2018-09-09T10:46:53.533Z,21.89
2018-09-09T10:47:53.401Z,21.85
2018-09-09T10:48:53.373Z,21.89
2018-09-09T10:49:53.352Z,21.88
2018-09-09T10:50:53.327Z,21.99
2018-09-09T10:51:53.300Z,21.89
2018-09-09T10:52:53.273Z,21.92
2018-09-09T10:53:53.257Z,21.89
2018-09-09T10:54:53.232Z,21.83
2018-09-09T10:55:53.199Z,21.80
2018-09-09T10:56:53.181Z,21.88
2018-09-09T10:57:53.158Z,21.88
2018-09-09T10:58:53.188Z,21.99
2018-09-09T10:59:53.102Z,22.00
2018-09-09T11:00:53.081Z,22.04
2018-09-09T11:01:53.059Z,21.99
2018-09-09T11:02:53.036Z,21.89
2018-09-09T11:03:53.007Z,21.93
2018-09-09T11:04:52.987Z,21.83
2018-09-09T11:05:52.972Z,21.76
2018-09-09T11:06:52.945Z,21.72
2018-09-09T11:07:52.917Z,21.64
2018-09-09T11:08:52.894Z,21.64
2018-09-09T11:09:52.860Z,21.57
2018-09-09T11:10:52.841Z,21.52
2018-09-09T11:11:52.817Z,21.57
2018-09-09T11:12:52.831Z,21.54
2018-09-09T11:13:52.772Z,21.66
2018-09-09T11:14:52.745Z,21.64
2018-09-09T11:15:52.721Z,21.69
2018-09-09T11:16:52.690Z,21.76
2018-09-09T11:17:52.675Z,21.77
2018-09-09T11:18:52.680Z,21.80
2018-09-09T11:19:52.619Z,21.93
2018-09-09T11:20:52.598Z,21.93
2018-09-09T11:21:52.579Z,21.95
2018-09-09T11:22:52.544Z,21.88
2018-09-09T11:23:52.537Z,21.77
2018-09-09T11:24:52.502Z,21.77
2018-09-09T11:25:52.476Z,21.76
2018-09-09T11:26:52.454Z,21.76
2018-09-09T11:27:52.430Z,21.73
2018-09-09T11:28:52.403Z,21.73
2018-09-09T11:29:52.402Z,21.77
2018-09-09T11:30:52.353Z,21.88
2018-09-09T11:31:52.332Z,21.91
2018-09-09T11:32:52.346Z,21.85
2018-09-09T11:33:52.284Z,21.89
2018-09-09T11:34:52.255Z,21.88
2018-09-09T11:35:52.234Z,21.96
2018-09-09T11:36:52.207Z,22.00
2018-09-09T11:37:52.188Z,21.99
2018-09-09T11:38:52.163Z,21.99
2018-09-09T11:39:52.133Z,22.15
2018-09-09T11:40:52.115Z,22.23
2018-09-09T11:41:52.084Z,22.33
2018-09-09T11:42:52.064Z,22.41
2018-09-09T11:43:52.038Z,22.36
2018-09-09T11:44:52.017Z,22.47
2018-09-09T11:45:51.988Z,22.51
2018-09-09T11:46:51.963Z,22.54
2018-09-09T11:47:51.946Z,22.59
2018-09-09T11:48:51.914Z,22.70
2018-09-09T11:49:51.900Z,22.80
2018-09-09T11:50:51.868Z,22.83
2018-09-09T11:51:51.847Z,22.78
2018-09-09T11:52:51.823Z,22.78
2018-09-09T11:53:51.801Z,22.78
2018-09-09T11:54:51.772Z,22.80
2018-09-09T11:55:51.767Z,22.91
2018-09-09T11:56:51.725Z,23.00
2018-09-09T11:57:51.706Z,23.05
2018-09-09T11:58:51.678Z,23.20
2018-09-09T11:59:51.654Z,23.17
2018-09-09T12:00:51.627Z,23.17
2018-09-09T12:01:51.618Z,23.23
2018-09-09T12:02:51.606Z,23.27
2018-09-09T12:03:51.553Z,23.37
2018-09-09T12:04:51.532Z,23.36
2018-09-09T12:05:51.514Z,23.41
2018-09-09T12:06:51.488Z,23.54
2018-09-09T12:07:51.459Z,23.51
2018-09-09T12:08:51.436Z,23.54
2018-09-09T12:09:51.419Z,23.55
2018-09-09T12:10:51.388Z,23.51
2018-09-09T12:11:51.368Z,23.65
2018-09-09T12:12:51.342Z,23.62
2018-09-09T12:13:51.322Z,23.71
2018-09-09T12:14:51.291Z,23.76
2018-09-09T12:15:51.279Z,23.83
2018-09-09T12:16:51.251Z,23.84
2018-09-09T12:17:51.225Z,23.86
2018-09-09T12:18:51.202Z,23.93
2018-09-09T12:19:51.175Z,23.93
2018-09-09T12:20:51.149Z,23.98
2018-09-09T12:21:51.136Z,24.03
2018-09-09T12:22:51.112Z,23.99
2018-09-09T12:23:51.082Z,24.05
2018-09-09T12:24:51.058Z,24.03
2018-09-09T12:25:51.037Z,24.21
2018-09-09T12:26:51.009Z,24.17
2018-09-09T12:27:50.994Z,24.18
2018-09-09T12:28:50.963Z,24.13
2018-09-09T12:29:50.948Z,24.14
2018-09-09T12:30:50.923Z,24.18
2018-09-09T12:31:50.896Z,24.20
2018-09-09T12:32:50.877Z,24.16
2018-09-09T12:33:50.846Z,24.20
2018-09-09T12:34:50.822Z,24.21
2018-09-09T12:35:50.808Z,24.24
2018-09-09T12:36:50.787Z,24.20
2018-09-09T12:37:50.813Z,24.17
2018-09-09T12:38:50.728Z,24.21
2018-09-09T12:39:50.731Z,24.23
2018-09-09T12:40:50.683Z,24.20
2018-09-09T12:41:50.677Z,24.36
2018-09-09T12:42:50.651Z,24.33
2018-09-09T12:43:50.619Z,24.40
2018-09-09T12:44:50.593Z,24.30
2018-09-09T12:45:50.572Z,24.40
2018-09-09T12:46:50.553Z,24.35
2018-09-09T12:47:50.521Z,24.33
2018-09-09T12:48:50.498Z,24.39
2018-09-09T12:49:50.490Z,24.35
2018-09-09T12:50:50.464Z,24.51
2018-09-09T12:51:50.424Z,24.43